sensor_id;sensor_type;location;lat;lon;timestamp;temperature;humidity
7212;DHT22;3647;48.792;9.802;2023-01-19T05:36:04;-3.20;99.90
7212;DHT22;3647;48.792;9.802;2023-01-19T05:38:31;-3.20;99.90
7212;DHT22;3647;48.792;9.802;2023-01-19T05:40:58;-3.10;99.90
7212;DHT22;3647;48.792;9.802;2023-01-19T05:43:25;-1.50;99.90
7212;DHT22;3647;48.792;9.802;2023-01-19T05:45:52;-3.30;99.90
7212;DHT22;3647;48.792;9.802;2023-01-19T05:48:19;-3.60;99.90
7212;DHT22;3647;48.792;9.802;2023-01-19T05:53:15;-3.20;99.90
7212;DHT22;3647;48.792;9.802;2023-01-19T05:58:09;-3.20;99.90
7212;DHT22;3647;48.792;9.802;2023-01-19T06:05:31;-2.90;99.90
7212;DHT22;3647;48.792;9.802;2023-01-19T06:10:27;-3.00;99.90
7212;DHT22;3647;48.792;9.802;2023-01-19T08:53:22;-2.40;99.90
7212;DHT22;3647;48.792;9.802;2023-01-19T08:55:53;-2.40;99.90
7212;DHT22;3647;48.792;9.802;2023-01-19T08:58:22;-0.40;99.90
7212;DHT22;3647;48.792;9.802;2023-01-19T09:00:49;-1.60;99.90
7212;DHT22;3647;48.792;9.802;2023-01-19T09:03:17;-2.10;99.90
7212;DHT22;3647;48.792;9.802;2023-01-19T09:05:45;-2.00;99.90
7212;DHT22;3647;48.792;9.802;2023-01-19T09:08:13;-1.90;99.90
7212;DHT22;3647;48.792;9.802;2023-01-19T09:10:46;-1.70;99.90
7212;DHT22;3647;48.792;9.802;2023-01-19T09:13:13;-1.60;99.90
7212;DHT22;3647;48.792;9.802;2023-01-19T09:15:41;-1.40;99.90
7212;DHT22;3647;48.792;9.802;2023-01-19T09:18:10;-1.40;99.90
7212;DHT22;3647;48.792;9.802;2023-01-19T09:20:38;-1.50;99.90
7212;DHT22;3647;48.792;9.802;2023-01-19T09:23:07;-1.50;99.90
7212;DHT22;3647;48.792;9.802;2023-01-19T09:28:04;-1.30;99.90
7212;DHT22;3647;48.792;9.802;2023-01-19T09:30:31;-1.20;99.90
7212;DHT22;3647;48.792;9.802;2023-01-19T09:33:01;-1.10;99.90
7212;DHT22;3647;48.792;9.802;2023-01-19T09:35:29;-1.00;99.90
7212;DHT22;3647;48.792;9.802;2023-01-19T09:37:56;-0.80;99.90
7212;DHT22;3647;48.792;9.802;2023-01-19T09:40:23;-0.80;99.90
7212;DHT22;3647;48.792;9.802;2023-01-19T09:42:54;-0.60;99.90
7212;DHT22;3647;48.792;9.802;2023-01-19T09:45:28;-0.40;99.90
7212;DHT22;3647;48.792;9.802;2023-01-19T09:47:57;0.10;99.90
7212;DHT22;3647;48.792;9.802;2023-01-19T09:50:26;-0.40;99.90
7212;DHT22;3647;48.792;9.802;2023-01-19T09:52:56;-0.30;99.90
7212;DHT22;3647;48.792;9.802;2023-01-19T09:55:26;-0.30;99.90
7212;DHT22;3647;48.792;9.802;2023-01-19T09:57:53;-0.20;99.90
7212;DHT22;3647;48.792;9.802;2023-01-19T10:00:21;-0.30;99.90
7212;DHT22;3647;48.792;9.802;2023-01-19T10:02:54;-0.30;99.90
7212;DHT22;3647;48.792;9.802;2023-01-19T10:05:26;-0.30;99.90
7212;DHT22;3647;48.792;9.802;2023-01-19T10:08:10;-0.20;99.90
7212;DHT22;3647;48.792;9.802;2023-01-19T10:10:45;1.40;99.90
7212;DHT22;3647;48.792;9.802;2023-01-19T10:13:22;0.20;99.90
7212;DHT22;3647;48.792;9.802;2023-01-19T10:16:01;0.90;99.90
7212;DHT22;3647;48.792;9.802;2023-01-19T10:18:40;0.30;99.90
7212;DHT22;3647;48.792;9.802;2023-01-19T10:21:15;0.40;99.90
7212;DHT22;3647;48.792;9.802;2023-01-19T10:23:44;0.50;99.90
7212;DHT22;3647;48.792;9.802;2023-01-19T10:26:15;3.10;99.90
7212;DHT22;3647;48.792;9.802;2023-01-19T10:28:44;0.40;99.90
7212;DHT22;3647;48.792;9.802;2023-01-19T10:31:13;0.50;99.90
7212;DHT22;3647;48.792;9.802;2023-01-19T10:33:42;0.50;99.90
7212;DHT22;3647;48.792;9.802;2023-01-19T10:36:16;0.70;99.90
7212;DHT22;3647;48.792;9.802;2023-01-19T10:38:43;0.70;99.90
7212;DHT22;3647;48.792;9.802;2023-01-19T10:41:15;0.80;99.90
7212;DHT22;3647;48.792;9.802;2023-01-19T10:43:43;2.50;99.90
7212;DHT22;3647;48.792;9.802;2023-01-19T10:46:19;1.30;99.90
7212;DHT22;3647;48.792;9.802;2023-01-19T10:48:50;1.80;99.90
7212;DHT22;3647;48.792;9.802;2023-01-19T10:51:17;1.50;99.90
7212;DHT22;3647;48.792;9.802;2023-01-19T10:53:56;1.50;99.90
7212;DHT22;3647;48.792;9.802;2023-01-19T10:56:26;1.60;99.90
7212;DHT22;3647;48.792;9.802;2023-01-19T10:58:53;1.70;99.90
7212;DHT22;3647;48.792;9.802;2023-01-19T11:01:21;1.60;99.90
7212;DHT22;3647;48.792;9.802;2023-01-19T11:03:50;1.60;99.90
7212;DHT22;3647;48.792;9.802;2023-01-19T11:06:25;1.60;99.90
7212;DHT22;3647;48.792;9.802;2023-01-19T11:09:08;1.60;99.90
7212;DHT22;3647;48.792;9.802;2023-01-19T11:11:42;1.60;99.90
7212;DHT22;3647;48.792;9.802;2023-01-19T11:14:11;1.60;99.90
7212;DHT22;3647;48.792;9.802;2023-01-19T11:16:39;1.70;99.90
7212;DHT22;3647;48.792;9.802;2023-01-19T11:19:20;1.70;99.90
7212;DHT22;3647;48.792;9.802;2023-01-19T11:21:50;1.80;99.90
7212;DHT22;3647;48.792;9.802;2023-01-19T11:24:18;2.40;99.90
7212;DHT22;3647;48.792;9.802;2023-01-19T11:26:47;1.80;99.90
7212;DHT22;3647;48.792;9.802;2023-01-19T11:29:17;1.60;99.90
7212;DHT22;3647;48.792;9.802;2023-01-19T11:31:45;1.70;99.90
7212;DHT22;3647;48.792;9.802;2023-01-19T11:34:26;2.60;99.90
7212;DHT22;3647;48.792;9.802;2023-01-19T11:36:58;2.90;99.90
7212;DHT22;3647;48.792;9.802;2023-01-19T11:39:27;1.90;99.90
7212;DHT22;3647;48.792;9.802;2023-01-19T11:41:56;2.00;99.90
7212;DHT22;3647;48.792;9.802;2023-01-19T11:44:26;2.10;99.90
7212;DHT22;3647;48.792;9.802;2023-01-19T11:46:56;2.20;99.90
7212;DHT22;3647;48.792;9.802;2023-01-19T11:49:31;2.30;99.90
7212;DHT22;3647;48.792;9.802;2023-01-19T11:52:03;2.50;99.90
7212;DHT22;3647;48.792;9.802;2023-01-19T11:54:34;2.50;99.90
7212;DHT22;3647;48.792;9.802;2023-01-19T11:57:09;2.70;99.90
7212;DHT22;3647;48.792;9.802;2023-01-19T11:59:36;2.60;99.90
7212;DHT22;3647;48.792;9.802;2023-01-19T12:02:14;2.70;99.90
7212;DHT22;3647;48.792;9.802;2023-01-19T12:04:44;2.60;99.90
7212;DHT22;3647;48.792;9.802;2023-01-19T12:07:13;3.30;99.90
7212;DHT22;3647;48.792;9.802;2023-01-19T12:09:47;2.50;99.90
7212;DHT22;3647;48.792;9.802;2023-01-19T12:12:24;2.70;99.90
7212;DHT22;3647;48.792;9.802;2023-01-19T12:14:56;2.40;99.90
7212;DHT22;3647;48.792;9.802;2023-01-19T12:20:50;2.40;99.90
7212;DHT22;3647;48.792;9.802;2023-01-19T12:26:25;2.40;99.90
7212;DHT22;3647;48.792;9.802;2023-01-19T12:28:55;2.30;99.90
7212;DHT22;3647;48.792;9.802;2023-01-19T12:31:24;3.60;99.90
7212;DHT22;3647;48.792;9.802;2023-01-19T12:33:51;2.30;99.90
7212;DHT22;3647;48.792;9.802;2023-01-19T12:36:36;2.30;99.90
7212;DHT22;3647;48.792;9.802;2023-01-19T12:39:10;2.40;99.90
7212;DHT22;3647;48.792;9.802;2023-01-19T12:41:40;2.40;99.90
7212;DHT22;3647;48.792;9.802;2023-01-19T12:44:26;2.30;99.90
7212;DHT22;3647;48.792;9.802;2023-01-19T12:46:56;2.30;99.90
7212;DHT22;3647;48.792;9.802;2023-01-19T12:49:30;2.20;99.90
7212;DHT22;3647;48.792;9.802;2023-01-19T12:52:22;2.20;99.90
7212;DHT22;3647;48.792;9.802;2023-01-19T12:54:55;3.20;99.90
7212;DHT22;3647;48.792;9.802;2023-01-19T12:57:26;2.20;99.90
7212;DHT22;3647;48.792;9.802;2023-01-19T12:59:55;2.30;99.90
7212;DHT22;3647;48.792;9.802;2023-01-19T13:02:50;2.50;99.90
7212;DHT22;3647;48.792;9.802;2023-01-19T13:05:22;2.50;99.90
7212;DHT22;3647;48.792;9.802;2023-01-19T13:11:19;2.50;99.90
7212;DHT22;3647;48.792;9.802;2023-01-19T13:16:58;2.60;99.90
7212;DHT22;3647;48.792;9.802;2023-01-19T13:19:36;2.50;99.90
7212;DHT22;3647;48.792;9.802;2023-01-19T13:25:06;2.50;99.90
7212;DHT22;3647;48.792;9.802;2023-01-19T13:27:35;2.50;99.90
7212;DHT22;3647;48.792;9.802;2023-01-19T13:30:09;2.50;99.90
7212;DHT22;3647;48.792;9.802;2023-01-19T13:32:39;2.50;99.90
7212;DHT22;3647;48.792;9.802;2023-01-19T13:35:12;2.40;99.90
7212;DHT22;3647;48.792;9.802;2023-01-19T13:37:41;2.40;99.90
7212;DHT22;3647;48.792;9.802;2023-01-19T13:40:16;3.60;99.90
7212;DHT22;3647;48.792;9.802;2023-01-19T13:42:45;2.40;99.90
7212;DHT22;3647;48.792;9.802;2023-01-19T13:45:25;2.40;99.90
7212;DHT22;3647;48.792;9.802;2023-01-19T13:47:54;2.20;99.90
7212;DHT22;3647;48.792;9.802;2023-01-19T13:50:23;2.20;99.90
7212;DHT22;3647;48.792;9.802;2023-01-19T13:52:51;2.30;99.90
7212;DHT22;3647;48.792;9.802;2023-01-19T13:55:21;2.20;99.90
7212;DHT22;3647;48.792;9.802;2023-01-19T13:57:50;2.20;99.90
7212;DHT22;3647;48.792;9.802;2023-01-19T14:00:19;2.10;99.90
7212;DHT22;3647;48.792;9.802;2023-01-19T14:02:56;2.10;99.90
7212;DHT22;3647;48.792;9.802;2023-01-19T14:05:25;4.30;99.90
7212;DHT22;3647;48.792;9.802;2023-01-19T14:08:03;1.90;99.90
7212;DHT22;3647;48.792;9.802;2023-01-19T14:10:31;1.80;99.90
7212;DHT22;3647;48.792;9.802;2023-01-19T14:13:00;1.80;99.90
7212;DHT22;3647;48.792;9.802;2023-01-19T14:15:28;1.80;99.90
7212;DHT22;3647;48.792;9.802;2023-01-19T14:18:21;2.80;99.90
7212;DHT22;3647;48.792;9.802;2023-01-19T14:20:53;1.80;99.90
7212;DHT22;3647;48.792;9.802;2023-01-19T14:23:40;1.80;99.90
7212;DHT22;3647;48.792;9.802;2023-01-19T14:29:22;1.70;99.90
7212;DHT22;3647;48.792;9.802;2023-01-19T14:31:51;1.70;99.90
7212;DHT22;3647;48.792;9.802;2023-01-19T14:34:32;3.10;99.90
7212;DHT22;3647;48.792;9.802;2023-01-19T14:37:00;1.60;99.90
7212;DHT22;3647;48.792;9.802;2023-01-19T14:39:30;1.60;99.90
7212;DHT22;3647;48.792;9.802;2023-01-19T14:41:59;2.10;99.90
7212;DHT22;3647;48.792;9.802;2023-01-19T14:44:30;1.60;99.90
7212;DHT22;3647;48.792;9.802;2023-01-19T14:46:59;1.50;99.90
7212;DHT22;3647;48.792;9.802;2023-01-19T14:49:30;1.50;99.90
7212;DHT22;3647;48.792;9.802;2023-01-19T14:51:58;1.50;99.90
7212;DHT22;3647;48.792;9.802;2023-01-19T14:54:33;1.40;99.90
7212;DHT22;3647;48.792;9.802;2023-01-19T14:57:00;1.40;99.90
7212;DHT22;3647;48.792;9.802;2023-01-19T14:59:28;1.40;99.90
7212;DHT22;3647;48.792;9.802;2023-01-19T15:01:56;1.40;99.90
7212;DHT22;3647;48.792;9.802;2023-01-19T15:04:24;1.40;99.90
7212;DHT22;3647;48.792;9.802;2023-01-19T15:06:51;1.40;99.90
7212;DHT22;3647;48.792;9.802;2023-01-19T15:09:20;1.40;99.90
7212;DHT22;3647;48.792;9.802;2023-01-19T15:11:49;1.40;99.90
7212;DHT22;3647;48.792;9.802;2023-01-19T15:14:17;1.40;99.90
7212;DHT22;3647;48.792;9.802;2023-01-19T15:16:48;1.40;99.90
7212;DHT22;3647;48.792;9.802;2023-01-19T15:19:16;1.40;99.90
7212;DHT22;3647;48.792;9.802;2023-01-19T15:21:43;1.30;99.90
7212;DHT22;3647;48.792;9.802;2023-01-19T15:24:12;2.00;99.90
7212;DHT22;3647;48.792;9.802;2023-01-19T15:26:41;1.40;99.90
7212;DHT22;3647;48.792;9.802;2023-01-19T15:29:20;1.30;99.90
7212;DHT22;3647;48.792;9.802;2023-01-19T15:31:48;1.30;99.90
7212;DHT22;3647;48.792;9.802;2023-01-19T15:34:16;1.20;99.90
7212;DHT22;3647;48.792;9.802;2023-01-19T15:36:43;1.20;99.90
7212;DHT22;3647;48.792;9.802;2023-01-19T15:39:10;1.20;99.90
7212;DHT22;3647;48.792;9.802;2023-01-19T15:41:38;1.20;99.90
7212;DHT22;3647;48.792;9.802;2023-01-19T15:44:05;1.20;99.90
7212;DHT22;3647;48.792;9.802;2023-01-19T15:46:34;1.10;99.90
7212;DHT22;3647;48.792;9.802;2023-01-19T15:49:03;1.10;99.90
7212;DHT22;3647;48.792;9.802;2023-01-19T15:51:30;1.00;99.90
7212;DHT22;3647;48.792;9.802;2023-01-19T15:53:58;1.00;99.90
7212;DHT22;3647;48.792;9.802;2023-01-19T15:56:27;1.00;99.90
7212;DHT22;3647;48.792;9.802;2023-01-19T15:58:54;0.90;99.90
7212;DHT22;3647;48.792;9.802;2023-01-19T16:01:23;1.10;99.90
7212;DHT22;3647;48.792;9.802;2023-01-19T16:03:57;1.50;99.90
7212;DHT22;3647;48.792;9.802;2023-01-19T16:06:25;0.80;99.90
7212;DHT22;3647;48.792;9.802;2023-01-19T16:08:53;0.80;99.90
7212;DHT22;3647;48.792;9.802;2023-01-19T16:11:24;0.70;99.90
7212;DHT22;3647;48.792;9.802;2023-01-19T16:13:51;0.70;99.90
7212;DHT22;3647;48.792;9.802;2023-01-19T16:16:19;0.60;99.90
7212;DHT22;3647;48.792;9.802;2023-01-19T16:18:47;0.60;99.90
7212;DHT22;3647;48.792;9.802;2023-01-19T16:21:13;0.50;99.90
7212;DHT22;3647;48.792;9.802;2023-01-19T16:23:42;0.50;99.90
7212;DHT22;3647;48.792;9.802;2023-01-19T16:26:22;0.40;99.90
7212;DHT22;3647;48.792;9.802;2023-01-19T16:28:49;0.40;99.90
7212;DHT22;3647;48.792;9.802;2023-01-19T16:31:16;1.20;99.90
7212;DHT22;3647;48.792;9.802;2023-01-19T16:33:43;1.40;99.90
7212;DHT22;3647;48.792;9.802;2023-01-19T16:36:18;0.40;99.90
7212;DHT22;3647;48.792;9.802;2023-01-19T16:38:46;0.40;99.90
7212;DHT22;3647;48.792;9.802;2023-01-19T16:41:13;0.30;99.90
7212;DHT22;3647;48.792;9.802;2023-01-19T16:43:40;0.30;99.90
7212;DHT22;3647;48.792;9.802;2023-01-19T16:46:17;0.20;99.90
7212;DHT22;3647;48.792;9.802;2023-01-19T16:48:44;0.10;99.90
7212;DHT22;3647;48.792;9.802;2023-01-19T16:51:11;0.10;99.90
7212;DHT22;3647;48.792;9.802;2023-01-19T16:53:38;0.10;99.90
7212;DHT22;3647;48.792;9.802;2023-01-19T16:56:08;0.00;99.90
7212;DHT22;3647;48.792;9.802;2023-01-19T16:58:35;0.00;99.90
7212;DHT22;3647;48.792;9.802;2023-01-19T17:01:07;0.00;99.90
7212;DHT22;3647;48.792;9.802;2023-01-19T17:03:33;-0.10;99.90
7212;DHT22;3647;48.792;9.802;2023-01-19T17:06:00;-0.20;99.90
7212;DHT22;3647;48.792;9.802;2023-01-19T17:08:27;-0.20;99.90
7212;DHT22;3647;48.792;9.802;2023-01-19T17:10:54;-0.20;99.90
7212;DHT22;3647;48.792;9.802;2023-01-19T17:13:22;-0.30;99.90
7212;DHT22;3647;48.792;9.802;2023-01-19T17:15:49;-0.40;99.90
7212;DHT22;3647;48.792;9.802;2023-01-19T17:18:15;-0.50;99.90
7212;DHT22;3647;48.792;9.802;2023-01-19T17:20:42;-0.50;99.90
7212;DHT22;3647;48.792;9.802;2023-01-19T17:23:09;-0.60;99.90
7212;DHT22;3647;48.792;9.802;2023-01-19T17:25:36;-0.60;99.90
7212;DHT22;3647;48.792;9.802;2023-01-19T17:28:03;-0.70;99.90
7212;DHT22;3647;48.792;9.802;2023-01-19T17:30:31;-0.70;99.90
7212;DHT22;3647;48.792;9.802;2023-01-19T17:32:58;-0.60;99.90
7212;DHT22;3647;48.792;9.802;2023-01-19T17:35:25;-0.70;99.90
7212;DHT22;3647;48.792;9.802;2023-01-19T17:37:52;-0.90;99.90
7212;DHT22;3647;48.792;9.802;2023-01-19T17:40:20;2.10;99.90
7212;DHT22;3647;48.792;9.802;2023-01-19T17:42:50;-0.80;99.90
7212;DHT22;3647;48.792;9.802;2023-01-19T17:45:17;-0.90;99.90
7212;DHT22;3647;48.792;9.802;2023-01-19T17:47:47;-0.60;99.90
7212;DHT22;3647;48.792;9.802;2023-01-19T17:50:14;-0.90;99.90
7212;DHT22;3647;48.792;9.802;2023-01-19T17:52:41;-1.00;99.90
7212;DHT22;3647;48.792;9.802;2023-01-19T17:55:08;-1.00;99.90
7212;DHT22;3647;48.792;9.802;2023-01-19T17:57:35;-0.70;99.90
7212;DHT22;3647;48.792;9.802;2023-01-19T18:00:03;-1.00;99.90
7212;DHT22;3647;48.792;9.802;2023-01-19T18:02:29;-1.00;99.90
7212;DHT22;3647;48.792;9.802;2023-01-19T18:04:58;-1.00;99.90
7212;DHT22;3647;48.792;9.802;2023-01-19T18:07:27;-1.10;99.90
7212;DHT22;3647;48.792;9.802;2023-01-19T18:09:54;-1.10;99.90
7212;DHT22;3647;48.792;9.802;2023-01-19T18:12:21;-1.10;99.90
7212;DHT22;3647;48.792;9.802;2023-01-19T18:14:48;-1.20;99.90
7212;DHT22;3647;48.792;9.802;2023-01-19T18:17:15;-1.20;99.90
7212;DHT22;3647;48.792;9.802;2023-01-19T18:19:42;-1.30;99.90
7212;DHT22;3647;48.792;9.802;2023-01-19T18:22:11;-1.30;99.90
7212;DHT22;3647;48.792;9.802;2023-01-19T18:24:37;-1.30;99.90
7212;DHT22;3647;48.792;9.802;2023-01-19T18:27:04;-1.30;99.90
7212;DHT22;3647;48.792;9.802;2023-01-19T18:29:31;-1.30;99.90
7212;DHT22;3647;48.792;9.802;2023-01-19T18:31:57;-1.30;99.90
7212;DHT22;3647;48.792;9.802;2023-01-19T18:34:24;-1.20;99.90
7212;DHT22;3647;48.792;9.802;2023-01-19T18:36:51;-1.20;99.90
7212;DHT22;3647;48.792;9.802;2023-01-19T18:39:19;-1.10;99.90
7212;DHT22;3647;48.792;9.802;2023-01-19T18:41:46;-1.20;99.90
7212;DHT22;3647;48.792;9.802;2023-01-19T18:44:13;-1.20;99.90
7212;DHT22;3647;48.792;9.802;2023-01-19T18:46:39;-1.10;99.90
7212;DHT22;3647;48.792;9.802;2023-01-19T18:49:06;-1.10;99.90
7212;DHT22;3647;48.792;9.802;2023-01-19T18:51:33;-1.00;99.90
7212;DHT22;3647;48.792;9.802;2023-01-19T18:54:01;-1.00;99.90
7212;DHT22;3647;48.792;9.802;2023-01-19T18:56:29;-0.90;99.90
7212;DHT22;3647;48.792;9.802;2023-01-19T18:58:56;-0.90;99.90
7212;DHT22;3647;48.792;9.802;2023-01-19T19:01:24;-0.90;99.90
7212;DHT22;3647;48.792;9.802;2023-01-19T19:03:52;-0.90;99.90
7212;DHT22;3647;48.792;9.802;2023-01-19T19:06:20;-0.80;99.90
7212;DHT22;3647;48.792;9.802;2023-01-19T19:08:47;-0.90;99.90
7212;DHT22;3647;48.792;9.802;2023-01-19T19:11:14;-0.80;99.90
7212;DHT22;3647;48.792;9.802;2023-01-19T19:13:42;-0.70;99.90
7212;DHT22;3647;48.792;9.802;2023-01-19T19:16:10;-0.70;99.90
7212;DHT22;3647;48.792;9.802;2023-01-19T19:18:38;-0.70;99.90
7212;DHT22;3647;48.792;9.802;2023-01-19T19:21:06;-0.70;99.90
7212;DHT22;3647;48.792;9.802;2023-01-19T19:23:33;-0.70;99.90
7212;DHT22;3647;48.792;9.802;2023-01-19T19:26:01;-0.70;99.90
7212;DHT22;3647;48.792;9.802;2023-01-19T19:28:28;-0.70;99.90
7212;DHT22;3647;48.792;9.802;2023-01-19T19:31:03;0.00;99.90
7212;DHT22;3647;48.792;9.802;2023-01-19T19:33:30;-1.90;99.90
7212;DHT22;3647;48.792;9.802;2023-01-19T19:35:57;-0.60;99.90
7212;DHT22;3647;48.792;9.802;2023-01-19T19:38:24;-0.60;99.90
7212;DHT22;3647;48.792;9.802;2023-01-19T19:40:50;-0.60;99.90
7212;DHT22;3647;48.792;9.802;2023-01-19T19:43:19;-0.60;99.90
7212;DHT22;3647;48.792;9.802;2023-01-19T19:45:55;-0.60;99.90
7212;DHT22;3647;48.792;9.802;2023-01-19T19:48:23;-0.50;99.90
7212;DHT22;3647;48.792;9.802;2023-01-19T19:50:50;-0.50;99.90
7212;DHT22;3647;48.792;9.802;2023-01-19T19:53:17;-0.50;99.90
7212;DHT22;3647;48.792;9.802;2023-01-19T19:55:54;-0.50;99.90
7212;DHT22;3647;48.792;9.802;2023-01-19T19:58:21;-0.40;99.90
7212;DHT22;3647;48.792;9.802;2023-01-19T20:00:48;-0.50;99.90
7212;DHT22;3647;48.792;9.802;2023-01-19T20:03:14;-0.40;99.90
7212;DHT22;3647;48.792;9.802;2023-01-19T20:05:43;-0.50;99.90
7212;DHT22;3647;48.792;9.802;2023-01-19T20:08:10;-0.50;99.90
7212;DHT22;3647;48.792;9.802;2023-01-19T20:10:36;-0.50;99.90
7212;DHT22;3647;48.792;9.802;2023-01-19T20:13:04;-0.50;99.90
7212;DHT22;3647;48.792;9.802;2023-01-19T20:15:34;-0.50;99.90
7212;DHT22;3647;48.792;9.802;2023-01-19T20:18:01;-0.50;99.90
7212;DHT22;3647;48.792;9.802;2023-01-19T20:20:28;-0.30;99.90
7212;DHT22;3647;48.792;9.802;2023-01-19T20:22:56;0.70;99.90
7212;DHT22;3647;48.792;9.802;2023-01-19T20:25:23;0.80;99.90
7212;DHT22;3647;48.792;9.802;2023-01-19T20:27:50;-0.50;99.90
7212;DHT22;3647;48.792;9.802;2023-01-19T20:30:17;-0.60;99.90
7212;DHT22;3647;48.792;9.802;2023-01-19T20:32:44;-0.60;99.90
7212;DHT22;3647;48.792;9.802;2023-01-19T20:35:10;-0.60;99.90
7212;DHT22;3647;48.792;9.802;2023-01-19T20:37:37;-0.50;99.90
7212;DHT22;3647;48.792;9.802;2023-01-19T20:40:06;-0.50;99.90
7212;DHT22;3647;48.792;9.802;2023-01-19T20:42:33;-0.50;99.90
7212;DHT22;3647;48.792;9.802;2023-01-19T20:45:01;-0.50;99.90
7212;DHT22;3647;48.792;9.802;2023-01-19T20:47:28;0.40;99.90
7212;DHT22;3647;48.792;9.802;2023-01-19T20:49:54;-0.60;99.90
7212;DHT22;3647;48.792;9.802;2023-01-19T20:52:21;-0.60;99.90
7212;DHT22;3647;48.792;9.802;2023-01-19T20:54:48;-0.60;99.90
7212;DHT22;3647;48.792;9.802;2023-01-19T20:57:17;-0.50;99.90
7212;DHT22;3647;48.792;9.802;2023-01-19T20:59:44;1.10;99.90
7212;DHT22;3647;48.792;9.802;2023-01-19T21:02:11;-0.50;99.90
7212;DHT22;3647;48.792;9.802;2023-01-19T21:04:39;-0.50;99.90
7212;DHT22;3647;48.792;9.802;2023-01-19T21:07:07;-0.50;99.90
7212;DHT22;3647;48.792;9.802;2023-01-19T21:09:34;-0.50;99.90
7212;DHT22;3647;48.792;9.802;2023-01-19T21:12:01;-0.50;99.90
7212;DHT22;3647;48.792;9.802;2023-01-19T21:14:30;-0.50;99.90
7212;DHT22;3647;48.792;9.802;2023-01-19T21:16:56;-0.40;99.90
7212;DHT22;3647;48.792;9.802;2023-01-19T21:19:41;-0.40;99.90
7212;DHT22;3647;48.792;9.802;2023-01-19T21:24:35;-0.30;99.90
7212;DHT22;3647;48.792;9.802;2023-01-19T21:27:01;0.40;99.90
7212;DHT22;3647;48.792;9.802;2023-01-19T21:29:30;-0.30;99.90
7212;DHT22;3647;48.792;9.802;2023-01-19T21:31:57;-0.30;99.90
7212;DHT22;3647;48.792;9.802;2023-01-19T21:34:23;-0.30;99.90
7212;DHT22;3647;48.792;9.802;2023-01-19T21:36:50;-0.40;99.90
7212;DHT22;3647;48.792;9.802;2023-01-19T21:39:17;-0.50;99.90
7212;DHT22;3647;48.792;9.802;2023-01-19T21:41:44;-0.50;99.90
7212;DHT22;3647;48.792;9.802;2023-01-19T21:44:11;-0.50;99.90
7212;DHT22;3647;48.792;9.802;2023-01-19T21:46:39;-0.60;99.90
7212;DHT22;3647;48.792;9.802;2023-01-19T21:49:07;-0.70;99.90
7212;DHT22;3647;48.792;9.802;2023-01-19T21:51:38;-0.80;99.90
7212;DHT22;3647;48.792;9.802;2023-01-19T21:54:05;-0.80;99.90
7212;DHT22;3647;48.792;9.802;2023-01-19T21:56:33;-0.80;99.90
7212;DHT22;3647;48.792;9.802;2023-01-19T21:59:00;-0.90;99.90
7212;DHT22;3647;48.792;9.802;2023-01-19T22:01:28;-0.90;99.90
7212;DHT22;3647;48.792;9.802;2023-01-19T22:03:56;-0.90;99.90
7212;DHT22;3647;48.792;9.802;2023-01-19T22:06:24;-0.90;99.90
7212;DHT22;3647;48.792;9.802;2023-01-19T22:11:19;-1.00;99.90
7212;DHT22;3647;48.792;9.802;2023-01-19T22:13:46;-1.00;99.90
